Time;durP1;ratioP1;P1;durP2;ratioP2;P2;SDS_P1;SDS_P2;PMS_P1;PMS_P2;Temp;Humidity;BMP_temperature;BMP_pressure;BME280_temperature;BME280_humidity;BME280_pressure;Samples;Min_cycle;Max_cycle;Signal;HPM_P1;HPM_P2
2023/11/22 00:02:18;;;;;;;4.68;4.22;;;;;;;;;;5094438;28;20192;-61
2023/11/22 00:04:45;;;;;;;5.35;4.55;;;;;;;;;;5094580;28;20235;-61
2023/11/22 00:07:12;;;;;;;4.47;4.07;;;;;;;;;;5094347;28;20307;-61
2023/11/22 00:09:39;;;;;;;5.38;4.35;;;;;;;;;;5094339;28;20237;-61
2023/11/22 00:12:07;;;;;;;4.78;4.38;;;;;;;;;;5094351;28;20284;-61
2023/11/22 00:14:34;;;;;;;4.93;4.13;;;;;;;;;;5094177;28;20188;-61
2023/11/22 00:17:02;;;;;;;5.20;4.70;;;;;;;;;;5094036;28;20302;-61
2023/11/22 00:19:30;;;;;;;4.95;4.15;;;;;;;;;;5094168;28;20195;-61
2023/11/22 00:21:57;;;;;;;6.65;4.35;;;;;;;;;;5094001;28;20697;-61
2023/11/22 00:24:24;;;;;;;6.65;5.00;;;;;;;;;;5094181;28;20620;-61
2023/11/22 00:26:50;;;;;;;5.30;4.32;;;;;;;;;;5093961;28;20212;-61
2023/11/22 00:29:17;;;;;;;6.80;4.40;;;;;;;;;;5093789;28;20281;-61
2023/11/22 00:31:44;;;;;;;5.80;5.00;;;;;;;;;;5094127;28;20200;-61
2023/11/22 00:34:11;;;;;;;5.43;4.18;;;;;;;;;;5093947;28;20235;-61
2023/11/22 00:36:40;;;;;;;5.38;4.78;;;;;;;;;;5093927;28;20200;-61
2023/11/22 00:39:07;;;;;;;5.55;4.00;;;;;;;;;;5093774;28;20188;-61
2023/11/22 00:41:35;;;;;;;5.70;4.97;;;;;;;;;;5093679;28;20188;-61
2023/11/22 00:44:03;;;;;;;7.00;4.90;;;;;;;;;;5093890;28;20554;-61
2023/11/22 00:46:30;;;;;;;7.47;4.57;;;;;;;;;;5093774;28;20189;-61
2023/11/22 00:48:57;;;;;;;5.05;4.55;;;;;;;;;;5093688;28;20280;-61
2023/11/22 00:51:24;;;;;;;5.55;4.55;;;;;;;;;;5093611;28;20195;-61
2023/11/22 00:53:52;;;;;;;6.63;5.10;;;;;;;;;;5093603;28;20275;-61
2023/11/22 00:56:19;;;;;;;7.15;5.20;;;;;;;;;;5093464;28;20614;-61
2023/11/22 00:58:49;;;;;;;8.30;4.97;;;;;;;;;;5093615;28;20279;-61
2023/11/22 01:01:16;;;;;;;9.23;5.55;;;;;;;;;;5093583;28;20622;-61
2023/11/22 01:03:43;;;;;;;6.00;4.68;;;;;;;;;;5092959;28;20233;-61
2023/11/22 01:06:10;;;;;;;6.97;4.47;;;;;;;;;;5093780;28;20279;-61
2023/11/22 01:08:37;;;;;;;7.20;4.72;;;;;;;;;;5093215;28;20217;-61
2023/11/22 01:11:05;;;;;;;6.32;5.20;;;;;;;;;;5093238;28;20196;-61
2023/11/22 01:13:32;;;;;;;5.90;4.22;;;;;;;;;;5093359;28;20220;-61
2023/11/22 01:15:59;;;;;;;7.65;5.60;;;;;;;;;;5093125;28;20220;-61
2023/11/22 01:18:27;;;;;;;5.72;4.57;;;;;;;;;;5093120;28;20648;-61
2023/11/22 01:20:54;;;;;;;6.60;5.65;;;;;;;;;;5093185;28;20185;-61
2023/11/22 01:23:20;;;;;;;6.32;5.43;;;;;;;;;;5093049;28;20189;-61
2023/11/22 01:25:47;;;;;;;7.18;5.20;;;;;;;;;;5093272;28;20550;-61
2023/11/22 01:28:17;;;;;;;6.90;5.15;;;;;;;;;;5093114;28;20227;-60
2023/11/22 01:30:45;;;;;;;6.18;5.40;;;;;;;;;;5093130;28;20188;-61
2023/11/22 01:33:12;;;;;;;6.65;4.97;;;;;;;;;;5093090;28;20541;-61
2023/11/22 01:35:39;;;;;;;5.78;4.75;;;;;;;;;;5093076;28;20551;-61
2023/11/22 01:38:06;;;;;;;4.57;4.15;;;;;;;;;;5092768;28;20312;-61
2023/11/22 01:40:33;;;;;;;6.45;4.72;;;;;;;;;;5093115;28;20275;-61
2023/11/22 01:43:02;;;;;;;9.57;4.57;;;;;;;;;;5093077;28;20195;-61
2023/11/22 01:45:30;;;;;;;5.53;4.38;;;;;;;;;;5092992;28;20309;-61
2023/11/22 01:47:57;;;;;;;5.47;4.60;;;;;;;;;;5092938;28;20279;-61
2023/11/22 01:50:24;;;;;;;6.32;4.95;;;;;;;;;;5092893;28;20284;-61
2023/11/22 01:52:51;;;;;;;4.57;4.18;;;;;;;;;;5093016;28;20284;-61
2023/11/22 01:55:18;;;;;;;5.57;4.68;;;;;;;;;;5092999;28;20199;-61
2023/11/22 01:57:45;;;;;;;4.35;3.97;;;;;;;;;;5092875;28;20299;-61
2023/11/22 02:00:14;;;;;;;6.15;3.92;;;;;;;;;;5092852;28;20193;-61
2023/11/22 02:02:43;;;;;;;6.25;4.30;;;;;;;;;;5092753;28;20189;-61
2023/11/22 02:05:11;;;;;;;5.13;4.03;;;;;;;;;;5092661;28;20192;-61
2023/11/22 02:07:38;;;;;;;5.63;3.70;;;;;;;;;;5092798;28;20659;-60
2023/11/22 02:10:07;;;;;;;4.63;4.07;;;;;;;;;;5092865;28;20563;-61
2023/11/22 02:12:35;;;;;;;5.15;4.13;;;;;;;;;;5092713;28;20238;-60
2023/11/22 02:15:02;;;;;;;5.07;4.05;;;;;;;;;;5092766;28;20196;-61
2023/11/22 02:17:30;;;;;;;4.85;4.40;;;;;;;;;;5096333;28;20219;-61
2023/11/22 02:19:58;;;;;;;5.80;4.40;;;;;;;;;;5096717;28;20284;-61
2023/11/22 02:22:25;;;;;;;8.10;4.50;;;;;;;;;;5096555;28;20185;-61
2023/11/22 02:24:53;;;;;;;7.03;4.40;;;;;;;;;;5096444;28;20760;-61
2023/11/22 02:27:20;;;;;;;8.50;4.85;;;;;;;;;;5096304;28;20220;-61
2023/11/22 02:29:47;;;;;;;6.60;4.32;;;;;;;;;;5096311;28;20276;-60
2023/11/22 02:32:14;;;;;;;4.85;4.10;;;;;;;;;;5096241;28;20189;-61
2023/11/22 02:34:41;;;;;;;4.70;4.25;;;;;;;;;;5096440;28;20279;-61
2023/11/22 02:37:08;;;;;;;5.88;4.22;;;;;;;;;;5096192;28;20275;-61
2023/11/22 02:39:55;;;;;;;7.60;4.50;;;;;;;;;;5096222;28;20589;-61
2023/11/22 02:42:23;;;;;;;5.07;4.20;;;;;;;;;;5096159;28;20719;-61
2023/11/22 02:44:50;;;;;;;4.55;3.90;;;;;;;;;;5095900;28;20715;-61
2023/11/22 02:47:17;;;;;;;5.57;4.35;;;;;;;;;;5096037;28;20279;-61
2023/11/22 02:49:44;;;;;;;8.15;5.05;;;;;;;;;;5095854;28;20203;-61
2023/11/22 02:52:14;;;;;;;5.32;4.22;;;;;;;;;;5095944;28;20195;-61
2023/11/22 02:54:42;;;;;;;9.55;4.63;;;;;;;;;;5095863;28;20200;-61
2023/11/22 02:57:08;;;;;;;6.45;4.85;;;;;;;;;;5095618;28;20596;-61
2023/11/22 02:59:37;;;;;;;8.15;4.57;;;;;;;;;;5095955;28;20271;-61
2023/11/22 03:02:04;;;;;;;5.47;4.30;;;;;;;;;;5095595;28;20279;-61
2023/11/22 03:04:31;;;;;;;5.82;3.90;;;;;;;;;;5095575;28;20722;-60
2023/11/22 03:06:58;;;;;;;4.80;4.10;;;;;;;;;;5095649;28;20525;-61
2023/11/22 03:09:25;;;;;;;5.43;4.03;;;;;;;;;;5095416;28;20223;-61
2023/11/22 03:11:52;;;;;;;5.57;4.63;;;;;;;;;;5095431;28;20284;-61
2023/11/22 03:14:20;;;;;;;4.43;3.60;;;;;;;;;;5095617;28;20275;-61
2023/11/22 03:16:48;;;;;;;6.38;4.57;;;;;;;;;;5095215;28;20588;-61
2023/11/22 03:19:15;;;;;;;6.68;4.05;;;;;;;;;;5095288;28;20216;-61
2023/11/22 03:21:43;;;;;;;7.22;5.22;;;;;;;;;;5095337;28;20283;-61
2023/11/22 03:24:11;;;;;;;7.13;4.53;;;;;;;;;;5095159;28;20189;-61
2023/11/22 03:26:39;;;;;;;6.05;3.85;;;;;;;;;;5094931;28;20224;-61
2023/11/22 03:29:06;;;;;;;6.25;4.15;;;;;;;;;;5095239;28;20598;-61
2023/11/22 03:31:33;;;;;;;4.70;4.20;;;;;;;;;;5095208;28;20283;-61
2023/11/22 03:34:01;;;;;;;5.60;4.45;;;;;;;;;;5095107;28;20638;-61
2023/11/22 03:36:28;;;;;;;7.90;4.53;;;;;;;;;;5095017;28;20187;-61
2023/11/22 03:38:55;;;;;;;5.03;4.20;;;;;;;;;;5094742;28;20254;-61
2023/11/22 03:41:22;;;;;;;5.00;3.97;;;;;;;;;;5095195;28;20279;-61
2023/11/22 03:43:48;;;;;;;9.27;4.38;;;;;;;;;;5094933;28;20287;-61
2023/11/22 03:46:15;;;;;;;6.35;4.45;;;;;;;;;;5094867;28;20194;-61
2023/11/22 03:48:42;;;;;;;4.40;3.80;;;;;;;;;;5094756;28;20621;-61
2023/11/22 03:51:11;;;;;;;5.18;3.92;;;;;;;;;;5094601;28;20292;-61
2023/11/22 03:53:38;;;;;;;4.72;4.22;;;;;;;;;;5094864;28;20192;-61
2023/11/22 03:56:05;;;;;;;4.60;3.70;;;;;;;;;;5094714;28;20279;-61
2023/11/22 03:58:32;;;;;;;6.95;4.10;;;;;;;;;;5094581;28;20220;-61
2023/11/22 04:01:02;;;;;;;4.55;3.85;;;;;;;;;;5094466;28;20722;-61
2023/11/22 04:03:29;;;;;;;9.85;4.80;;;;;;;;;;5094493;28;20199;-61
2023/11/22 04:05:56;;;;;;;4.53;3.70;;;;;;;;;;5094280;28;20199;-61
2023/11/22 04:08:25;;;;;;;5.95;3.38;;;;;;;;;;5094591;28;20200;-60
2023/11/22 04:10:52;;;;;;;5.80;4.40;;;;;;;;;;5094336;28;20540;-61
2023/11/22 04:13:19;;;;;;;5.30;4.03;;;;;;;;;;5094288;28;20192;-61
2023/11/22 04:15:46;;;;;;;5.25;4.10;;;;;;;;;;5093938;28;20740;-61
2023/11/22 04:18:13;;;;;;;4.88;3.97;;;;;;;;;;5093969;28;20606;-61
2023/11/22 04:20:40;;;;;;;4.90;4.15;;;;;;;;;;5094336;28;20185;-61
2023/11/22 04:23:10;;;;;;;4.53;4.00;;;;;;;;;;5094062;28;20666;-61
2023/11/22 04:25:39;;;;;;;5.20;4.70;;;;;;;;;;5094146;28;20184;-61
2023/11/22 04:28:08;;;;;;;4.40;4.00;;;;;;;;;;5094029;28;20216;-62
2023/11/22 04:30:35;;;;;;;8.40;4.13;;;;;;;;;;5093959;28;20195;-61
2023/11/22 04:33:02;;;;;;;6.05;4.00;;;;;;;;;;5093826;28;20648;-61
2023/11/22 04:35:29;;;;;;;6.82;4.60;;;;;;;;;;5094095;28;20195;-61
2023/11/22 04:37:56;;;;;;;5.15;4.13;;;;;;;;;;5093042;28;20209;-61
2023/11/22 04:40:23;;;;;;;4.90;4.40;;;;;;;;;;5093888;28;20200;-61
2023/11/22 04:42:51;;;;;;;4.05;3.65;;;;;;;;;;5093714;28;20275;-61
2023/11/22 04:45:18;;;;;;;5.00;4.50;;;;;;;;;;5093603;28;20242;-61
2023/11/22 04:47:45;;;;;;;4.78;4.03;;;;;;;;;;5093676;28;20246;-61
2023/11/22 04:50:12;;;;;;;6.65;4.90;;;;;;;;;;5093649;28;20729;-61
2023/11/22 04:52:39;;;;;;;8.15;3.72;;;;;;;;;;5093584;28;20242;-61
2023/11/22 04:55:06;;;;;;;7.25;4.68;;;;;;;;;;5093961;28;20562;-61
2023/11/22 04:57:33;;;;;;;5.60;4.60;;;;;;;;;;5093364;28;20193;-61
2023/11/22 05:00:03;;;;;;;5.30;4.80;;;;;;;;;;5093357;28;20612;-61
2023/11/22 05:02:30;;;;;;;6.03;3.97;;;;;;;;;;5093388;28;20640;-61
2023/11/22 05:04:57;;;;;;;6.85;4.85;;;;;;;;;;5093505;28;20295;-61
2023/11/22 05:07:24;;;;;;;4.75;4.25;;;;;;;;;;5093355;28;20291;-61
2023/11/22 05:09:51;;;;;;;7.90;4.63;;;;;;;;;;5093363;28;20643;-61
2023/11/22 05:12:17;;;;;;;6.15;4.90;;;;;;;;;;5093248;28;20283;-61
2023/11/22 05:14:45;;;;;;;4.32;3.80;;;;;;;;;;5093113;28;20189;-60
2023/11/22 05:17:13;;;;;;;8.77;5.05;;;;;;;;;;5093038;28;20726;-61
2023/11/22 05:19:40;;;;;;;6.28;4.95;;;;;;;;;;5093136;28;20643;-61
2023/11/22 05:22:07;;;;;;;4.80;4.40;;;;;;;;;;5093196;28;20184;-61
2023/11/22 05:24:34;;;;;;;11.48;6.13;;;;;;;;;;5093155;28;20279;-61
2023/11/22 05:27:01;;;;;;;6.55;5.22;;;;;;;;;;5093053;28;20192;-60
2023/11/22 05:29:28;;;;;;;6.97;5.60;;;;;;;;;;5093050;28;20271;-61
2023/11/22 05:31:55;;;;;;;7.50;5.60;;;;;;;;;;5093152;28;20196;-61
2023/11/22 05:34:24;;;;;;;8.32;5.10;;;;;;;;;;5093104;28;20594;-61
2023/11/22 05:36:51;;;;;;;12.63;6.47;;;;;;;;;;5092842;28;20666;-61
2023/11/22 05:39:18;;;;;;;6.80;5.63;;;;;;;;;;5092811;28;20218;-61
2023/11/22 05:41:45;;;;;;;6.28;4.68;;;;;;;;;;5092762;28;20188;-61
2023/11/22 05:44:12;;;;;;;7.78;4.45;;;;;;;;;;5093086;28;20275;-61
2023/11/22 05:46:38;;;;;;;12.02;6.28;;;;;;;;;;5092986;28;20191;-60
2023/11/22 05:49:05;;;;;;;7.97;5.15;;;;;;;;;;5093153;28;20322;-61
2023/11/22 05:51:34;;;;;;;12.88;5.35;;;;;;;;;;5097031;28;20275;-61
2023/11/22 05:54:01;;;;;;;6.43;4.95;;;;;;;;;;5096934;28;20192;-61
2023/11/22 05:56:28;;;;;;;8.63;5.65;;;;;;;;;;5096752;28;20189;-61
2023/11/22 05:58:55;;;;;;;5.65;4.80;;;;;;;;;;5096875;28;20610;-61
2023/11/22 06:01:22;;;;;;;8.80;5.95;;;;;;;;;;5096825;28;20198;-61
2023/11/22 06:03:49;;;;;;;6.40;5.28;;;;;;;;;;5096796;28;20245;-61
2023/11/22 06:06:17;;;;;;;8.82;5.82;;;;;;;;;;5096770;28;20631;-60
2023/11/22 06:08:45;;;;;;;10.40;5.40;;;;;;;;;;5096534;28;20238;-61
2023/11/22 06:11:13;;;;;;;8.30;5.72;;;;;;;;;;5096765;28;20184;-61
2023/11/22 06:13:40;;;;;;;7.57;5.47;;;;;;;;;;5096523;28;20227;-61
2023/11/22 06:16:07;;;;;;;9.45;5.47;;;;;;;;;;5096376;28;20651;-61
2023/11/22 06:18:39;;;;;;;13.93;5.30;;;;;;;;;;5096279;28;20220;-61
2023/11/22 06:21:06;;;;;;;10.27;7.13;;;;;;;;;;5096391;28;20471;-61
2023/11/22 06:23:33;;;;;;;10.85;6.68;;;;;;;;;;5096340;28;20193;-61
2023/11/22 06:26:02;;;;;;;6.75;5.15;;;;;;;;;;5096537;28;20199;-61
2023/11/22 06:28:29;;;;;;;5.32;4.70;;;;;;;;;;5096319;28;20219;-61
2023/11/22 06:30:56;;;;;;;5.95;4.75;;;;;;;;;;5096236;28;20192;-61
2023/11/22 06:33:23;;;;;;;9.07;5.95;;;;;;;;;;5096131;28;20283;-61
2023/11/22 06:35:49;;;;;;;10.82;5.25;;;;;;;;;;5095920;28;20742;-61
2023/11/22 06:38:17;;;;;;;10.75;5.55;;;;;;;;;;5096147;28;20667;-60
2023/11/22 06:40:44;;;;;;;8.18;5.32;;;;;;;;;;5096171;28;20189;-61
2023/11/22 06:43:12;;;;;;;5.85;5.25;;;;;;;;;;5095896;28;20220;-61
2023/11/22 06:45:39;;;;;;;12.35;6.88;;;;;;;;;;5095915;28;20189;-61
2023/11/22 06:48:06;;;;;;;6.43;5.63;;;;;;;;;;5095744;28;20283;-61
2023/11/22 06:50:33;;;;;;;9.40;6.68;;;;;;;;;;5095699;28;20272;-61
2023/11/22 06:53:00;;;;;;;15.15;8.40;;;;;;;;;;5095831;28;20231;-61
2023/11/22 06:55:27;;;;;;;10.40;7.68;;;;;;;;;;5095736;28;20595;-60
2023/11/22 06:57:54;;;;;;;9.93;6.65;;;;;;;;;;5095626;28;20220;-61
2023/11/22 07:00:23;;;;;;;11.20;7.50;;;;;;;;;;5095571;28;20212;-61
2023/11/22 07:02:50;;;;;;;10.60;6.50;;;;;;;;;;5094699;28;20184;-60
2023/11/22 07:05:18;;;;;;;14.13;5.82;;;;;;;;;;5095355;28;20295;-61
2023/11/22 07:07:46;;;;;;;29.42;6.82;;;;;;;;;;5095604;28;20192;-61
2023/11/22 07:10:14;;;;;;;9.00;5.82;;;;;;;;;;5095624;28;20234;-61
2023/11/22 07:12:43;;;;;;;6.22;5.25;;;;;;;;;;5095596;28;20540;-61
2023/11/22 07:15:10;;;;;;;9.23;6.55;;;;;;;;;;5095012;28;20185;-61
2023/11/22 07:17:38;;;;;;;13.75;7.50;;;;;;;;;;5095152;28;20224;-61
2023/11/22 07:20:09;;;;;;;18.83;11.93;;;;;;;;;;5095263;28;20307;-61
2023/11/22 07:22:36;;;;;;;26.40;15.10;;;;;;;;;;5095193;28;20192;-61
2023/11/22 07:25:03;;;;;;;24.40;14.13;;;;;;;;;;5095160;28;20195;-61
2023/11/22 07:27:31;;;;;;;32.03;16.40;;;;;;;;;;5095089;28;20258;-61
2023/11/22 07:29:58;;;;;;;34.92;21.33;;;;;;;;;;5093928;28;20831;-60
2023/11/22 07:32:25;;;;;;;16.17;10.50;;;;;;;;;;5095154;28;20246;-60
2023/11/22 07:34:55;;;;;;;13.90;7.95;;;;;;;;;;5095056;28;20276;-61
2023/11/22 07:37:23;;;;;;;16.73;7.22;;;;;;;;;;5094995;28;20552;-62
2023/11/22 07:39:50;;;;;;;7.80;6.38;;;;;;;;;;5094885;28;20216;-61
2023/11/22 07:42:18;;;;;;;8.45;5.82;;;;;;;;;;5094841;28;20188;-62
2023/11/22 07:44:45;;;;;;;13.35;6.60;;;;;;;;;;5094661;28;20207;-62
2023/11/22 07:47:12;;;;;;;10.75;6.55;;;;;;;;;;5094744;28;20275;-62
2023/11/22 07:49:41;;;;;;;9.98;7.28;;;;;;;;;;5094765;28;20184;-62
2023/11/22 07:52:13;;;;;;;7.97;6.25;;;;;;;;;;5094677;28;20192;-62
2023/11/22 07:54:40;;;;;;;10.40;6.35;;;;;;;;;;5094627;28;20188;-61
2023/11/22 07:57:07;;;;;;;7.78;6.45;;;;;;;;;;5094402;28;20279;-62
2023/11/22 07:59:34;;;;;;;9.43;6.10;;;;;;;;;;5094518;28;20227;-61
2023/11/22 08:02:02;;;;;;;8.15;5.80;;;;;;;;;;5094150;28;20248;-61
2023/11/22 08:04:32;;;;;;;7.20;6.03;;;;;;;;;;5094137;28;20188;-62
2023/11/22 08:06:59;;;;;;;9.80;6.03;;;;;;;;;;5094232;28;20180;-63
2023/11/22 08:09:31;;;;;;;8.65;5.78;;;;;;;;;;5094201;28;20192;-62
2023/11/22 08:11:57;;;;;;;6.43;5.20;;;;;;;;;;5094128;28;20276;-63
2023/11/22 08:14:27;;;;;;;6.22;5.35;;;;;;;;;;5094249;28;20226;-62
2023/11/22 08:16:54;;;;;;;9.07;6.03;;;;;;;;;;5093988;28;20239;-60
2023/11/22 08:19:21;;;;;;;6.25;5.15;;;;;;;;;;5093774;28;20710;-62
2023/11/22 08:21:49;;;;;;;6.03;5.15;;;;;;;;;;5094089;28;20238;-60
2023/11/22 08:24:15;;;;;;;6.10;5.30;;;;;;;;;;5093836;28;20192;-60
2023/11/22 08:26:44;;;;;;;7.80;6.07;;;;;;;;;;5092305;28;20193;-61
2023/11/22 08:29:11;;;;;;;8.90;6.28;;;;;;;;;;5091836;28;20573;-64
2023/11/22 08:31:38;;;;;;;7.32;6.00;;;;;;;;;;5091726;28;20185;-61
2023/11/22 08:34:07;;;;;;;9.43;6.05;;;;;;;;;;5091769;28;20191;-61
2023/11/22 08:36:34;;;;;;;5.57;5.05;;;;;;;;;;5091617;28;20547;-62
2023/11/22 08:39:01;;;;;;;7.05;6.40;;;;;;;;;;5091509;28;20656;-61
2023/11/22 08:41:29;;;;;;;7.35;5.95;;;;;;;;;;5092796;28;20275;-62
2023/11/22 08:43:58;;;;;;;8.52;5.95;;;;;;;;;;5093722;28;20536;-64
2023/11/22 08:46:25;;;;;;;8.85;6.55;;;;;;;;;;5093635;28;20231;-62
2023/11/22 08:48:52;;;;;;;8.75;6.35;;;;;;;;;;5093550;28;20224;-60
2023/11/22 08:51:19;;;;;;;6.50;5.03;;;;;;;;;;5093497;28;20196;-62
2023/11/22 08:53:46;;;;;;;7.78;6.00;;;;;;;;;;5093429;28;20199;-63
2023/11/22 08:56:13;;;;;;;9.65;5.93;;;;;;;;;;5093542;28;20188;-64
2023/11/22 08:58:40;;;;;;;8.55;6.47;;;;;;;;;;5093261;28;20189;-62
2023/11/22 09:01:08;;;;;;;13.48;6.60;;;;;;;;;;5093212;28;20307;-66
2023/11/22 09:03:35;;;;;;;10.52;6.88;;;;;;;;;;5093343;28;20245;-62
2023/11/22 09:06:02;;;;;;;6.55;5.47;;;;;;;;;;5093118;28;20607;-63
2023/11/22 09:08:30;;;;;;;9.43;6.50;;;;;;;;;;5093155;28;20619;-56
2023/11/22 09:10:56;;;;;;;6.43;5.53;;;;;;;;;;5093194;28;20283;-58
2023/11/22 09:13:24;;;;;;;9.25;5.85;;;;;;;;;;5093029;28;20594;-58
2023/11/22 09:15:51;;;;;;;8.10;5.68;;;;;;;;;;5092969;28;20299;-62
2023/11/22 09:18:19;;;;;;;10.52;6.45;;;;;;;;;;5092957;28;20196;-60
2023/11/22 09:20:46;;;;;;;8.68;5.85;;;;;;;;;;5093035;28;20220;-61
2023/11/22 09:23:14;;;;;;;7.95;6.45;;;;;;;;;;5092945;28;20283;-57
2023/11/22 09:25:41;;;;;;;6.38;4.88;;;;;;;;;;5092505;28;20185;-61
2023/11/22 09:28:09;;;;;;;8.55;6.40;;;;;;;;;;5092313;28;20538;-62
2023/11/22 09:30:38;;;;;;;9.48;6.50;;;;;;;;;;5091977;28;20448;-60
2023/11/22 09:33:06;;;;;;;5.28;4.65;;;;;;;;;;5092804;28;20220;-61
2023/11/22 09:35:35;;;;;;;7.63;6.10;;;;;;;;;;5092561;28;20578;-59
2023/11/22 09:38:03;;;;;;;7.00;4.80;;;;;;;;;;5092862;28;20470;-60
2023/11/22 09:40:31;;;;;;;7.50;5.43;;;;;;;;;;5092693;28;20626;-63
2023/11/22 09:42:59;;;;;;;6.32;4.63;;;;;;;;;;5092789;28;20196;-62
2023/11/22 09:45:26;;;;;;;7.70;5.65;;;;;;;;;;5091585;28;20448;-61
2023/11/22 09:47:53;;;;;;;6.80;6.00;;;;;;;;;;5091879;28;20444;-64
2023/11/22 09:50:21;;;;;;;6.97;6.20;;;;;;;;;;5092053;28;20536;-61
2023/11/22 09:52:52;;;;;;;8.88;5.60;;;;;;;;;;5092613;28;20444;-63
2023/11/22 09:55:20;;;;;;;7.85;5.70;;;;;;;;;;5092270;28;20448;-61
2023/11/22 09:57:48;;;;;;;7.20;5.50;;;;;;;;;;5092372;28;20606;-62
2023/11/22 10:00:18;;;;;;;7.30;6.20;;;;;;;;;;5091554;28;20456;-58
2023/11/22 10:02:45;;;;;;;7.35;6.03;;;;;;;;;;5092038;28;20494;-62
2023/11/22 10:05:12;;;;;;;7.95;5.45;;;;;;;;;;5092657;28;20271;-61
2023/11/22 10:07:39;;;;;;;5.55;4.80;;;;;;;;;;5092543;28;20216;-61
2023/11/22 10:10:10;;;;;;;6.32;5.00;;;;;;;;;;5092396;28;20193;-60
2023/11/22 10:12:40;;;;;;;4.70;4.10;;;;;;;;;;5092320;28;20185;-61
2023/11/22 10:15:14;;;;;;;5.93;4.47;;;;;;;;;;5092186;28;20191;-63
2023/11/22 10:17:40;;;;;;;7.57;4.55;;;;;;;;;;5092492;28;20220;-61
2023/11/22 10:20:10;;;;;;;4.95;4.55;;;;;;;;;;5092261;28;20213;-61
2023/11/22 10:22:45;;;;;;;5.75;4.72;;;;;;;;;;5092451;28;20188;-61
2023/11/22 10:25:13;;;;;;;5.85;4.40;;;;;;;;;;5092404;28;20192;-61
2023/11/22 10:27:40;;;;;;;5.40;4.50;;;;;;;;;;5092477;28;20548;-64
2023/11/22 10:30:09;;;;;;;5.43;4.60;;;;;;;;;;5092345;28;20558;-62
2023/11/22 10:32:38;;;;;;;5.70;5.10;;;;;;;;;;5091401;28;20955;-61
2023/11/22 10:35:05;;;;;;;6.40;5.10;;;;;;;;;;5092183;28;20457;-62
2023/11/22 10:37:32;;;;;;;5.65;4.35;;;;;;;;;;5094701;28;20478;-60
2023/11/22 10:39:59;;;;;;;5.03;4.20;;;;;;;;;;5096023;28;20266;-61
2023/11/22 10:42:28;;;;;;;7.68;5.75;;;;;;;;;;5096087;28;20188;-61
2023/11/22 10:44:57;;;;;;;4.65;4.25;;;;;;;;;;5095838;28;20226;-60
2023/11/22 10:47:25;;;;;;;5.65;3.85;;;;;;;;;;5095662;28;20199;-64
2023/11/22 10:49:52;;;;;;;4.82;4.35;;;;;;;;;;5095631;28;20188;-63
2023/11/22 10:52:20;;;;;;;4.95;3.95;;;;;;;;;;5095643;28;20558;-63
2023/11/22 10:54:51;;;;;;;4.93;3.85;;;;;;;;;;5095770;28;20245;-63
2023/11/22 10:57:20;;;;;;;3.90;3.60;;;;;;;;;;5095730;28;20525;-62
2023/11/22 10:59:56;;;;;;;5.97;4.63;;;;;;;;;;5095486;28;20219;-58
2023/11/22 11:02:24;;;;;;;4.55;3.72;;;;;;;;;;5095547;28;20192;-63
2023/11/22 11:04:54;;;;;;;5.22;4.10;;;;;;;;;;5095162;28;20224;-61
2023/11/22 11:07:23;;;;;;;7.57;4.63;;;;;;;;;;5095654;28;20237;-63
2023/11/22 11:09:50;;;;;;;4.55;3.92;;;;;;;;;;5095330;28;20185;-60
2023/11/22 11:12:18;;;;;;;4.82;3.53;;;;;;;;;;5095445;28;20192;-63
2023/11/22 11:14:46;;;;;;;5.45;4.10;;;;;;;;;;5095260;28;20195;-63
2023/11/22 11:17:15;;;;;;;6.38;3.83;;;;;;;;;;5094989;28;20700;-62
2023/11/22 11:19:42;;;;;;;6.60;4.63;;;;;;;;;;5095499;28;20603;-63
2023/11/22 11:22:10;;;;;;;5.00;3.95;;;;;;;;;;5094810;28;20280;-63
2023/11/22 11:24:39;;;;;;;5.82;3.83;;;;;;;;;;5094375;28;20196;-63
2023/11/22 11:27:08;;;;;;;5.88;5.15;;;;;;;;;;5094246;28;20188;-62
2023/11/22 11:29:36;;;;;;;5.82;4.00;;;;;;;;;;5094183;28;20641;-62
2023/11/22 11:32:04;;;;;;;3.90;3.15;;;;;;;;;;5094429;28;20201;-63
2023/11/22 11:34:32;;;;;;;5.35;4.63;;;;;;;;;;5094172;28;20667;-63
2023/11/22 11:37:01;;;;;;;4.22;3.83;;;;;;;;;;5094289;28;20192;-62
2023/11/22 11:39:30;;;;;;;4.28;3.67;;;;;;;;;;5094716;28;20846;-63
2023/11/22 11:42:10;;;;;;;5.25;3.92;;;;;;;;;;5094830;28;20220;-62
2023/11/22 11:44:37;;;;;;;6.40;3.75;;;;;;;;;;5094939;28;20192;-62
2023/11/22 11:47:10;;;;;;;6.13;4.65;;;;;;;;;;5094447;28;20214;-60
2023/11/22 11:49:39;;;;;;;4.72;4.32;;;;;;;;;;5094831;28;20306;-61
2023/11/22 11:52:07;;;;;;;5.65;5.05;;;;;;;;;;5094647;28;20551;-61
2023/11/22 11:54:35;;;;;;;4.45;4.05;;;;;;;;;;5094506;28;20189;-65
2023/11/22 11:57:02;;;;;;;8.45;4.18;;;;;;;;;;5094787;28;20189;-63
2023/11/22 11:59:29;;;;;;;4.82;4.20;;;;;;;;;;5094569;28;20559;-62
2023/11/22 12:01:57;;;;;;;11.23;3.90;;;;;;;;;;5094434;28;20220;-62
2023/11/22 12:04:24;;;;;;;4.78;4.28;;;;;;;;;;5094457;28;20572;-63
2023/11/22 12:06:52;;;;;;;7.43;4.10;;;;;;;;;;5094175;28;20271;-62
2023/11/22 12:09:25;;;;;;;6.05;4.88;;;;;;;;;;5094182;28;20192;-62
2023/11/22 12:11:53;;;;;;;7.72;3.90;;;;;;;;;;5094399;28;20196;-61
2023/11/22 12:14:19;;;;;;;5.15;4.00;;;;;;;;;;5094279;28;20203;-62
2023/11/22 12:16:48;;;;;;;4.88;4.00;;;;;;;;;;5093783;28;20251;-61
2023/11/22 12:19:22;;;;;;;3.90;3.50;;;;;;;;;;5094111;28;20284;-62
2023/11/22 12:21:49;;;;;;;4.80;4.13;;;;;;;;;;5093876;28;20211;-62
2023/11/22 12:24:18;;;;;;;5.13;4.00;;;;;;;;;;5094149;28;20199;-61
2023/11/22 12:26:46;;;;;;;4.80;4.30;;;;;;;;;;5093990;28;20193;-60
2023/11/22 12:29:14;;;;;;;4.00;3.60;;;;;;;;;;5094061;28;20598;-61
2023/11/22 12:31:46;;;;;;;3.95;3.53;;;;;;;;;;5093774;28;20651;-61
2023/11/22 12:34:13;;;;;;;3.72;3.30;;;;;;;;;;5093711;28;20185;-62
2023/11/22 12:36:41;;;;;;;7.20;4.10;;;;;;;;;;5093936;28;20272;-63
2023/11/22 12:39:11;;;;;;;5.38;4.05;;;;;;;;;;5093889;28;20410;-61
2023/11/22 12:41:42;;;;;;;6.75;4.00;;;;;;;;;;5093845;28;20307;-61
2023/11/22 12:44:09;;;;;;;4.78;3.58;;;;;;;;;;5093714;28;20735;-61
2023/11/22 12:46:55;;;;;;;4.45;3.70;;;;;;;;;;5093469;28;20224;-61
2023/11/22 12:49:22;;;;;;;3.95;3.47;;;;;;;;;;5093497;28;20224;-62
2023/11/22 12:51:53;;;;;;;6.20;4.40;;;;;;;;;;5093607;28;20207;-61
2023/11/22 12:54:21;;;;;;;5.40;3.40;;;;;;;;;;5093480;28;20192;-61
2023/11/22 12:56:50;;;;;;;4.95;4.20;;;;;;;;;;5093511;28;20589;-61
2023/11/22 12:59:17;;;;;;;4.38;3.95;;;;;;;;;;5092550;28;20192;-61
2023/11/22 13:01:44;;;;;;;4.45;4.00;;;;;;;;;;5093500;28;20705;-61
2023/11/22 13:04:14;;;;;;;4.10;3.80;;;;;;;;;;5093290;28;20184;-61
2023/11/22 13:06:41;;;;;;;4.30;3.85;;;;;;;;;;5093192;28;20652;-61
2023/11/22 13:09:14;;;;;;;3.80;3.47;;;;;;;;;;5093229;28;20279;-61
2023/11/22 13:11:41;;;;;;;5.30;4.00;;;;;;;;;;5093162;28;20185;-61
2023/11/22 13:14:09;;;;;;;4.28;3.80;;;;;;;;;;5093161;28;20196;-61
2023/11/22 13:16:38;;;;;;;4.00;3.28;;;;;;;;;;5092813;28;20225;-61
2023/11/22 13:19:07;;;;;;;4.03;3.58;;;;;;;;;;5093212;28;20192;-62
2023/11/22 13:21:34;;;;;;;4.53;3.95;;;;;;;;;;5093097;28;20227;-61
2023/11/22 13:24:01;;;;;;;5.78;4.35;;;;;;;;;;5093068;28;20195;-61
2023/11/22 13:26:27;;;;;;;5.60;5.10;;;;;;;;;;5092950;28;20279;-61
2023/11/22 13:28:55;;;;;;;5.53;4.15;;;;;;;;;;5093060;28;20284;-61
2023/11/22 13:31:24;;;;;;;4.10;3.70;;;;;;;;;;5092946;28;20188;-61
2023/11/22 13:33:51;;;;;;;5.22;4.65;;;;;;;;;;5092868;28;20188;-61
2023/11/22 13:36:18;;;;;;;5.28;4.00;;;;;;;;;;5092799;28;20640;-61
2023/11/22 13:38:45;;;;;;;3.85;3.50;;;;;;;;;;5092893;28;20239;-62
2023/11/22 13:41:12;;;;;;;4.03;3.60;;;;;;;;;;5092975;28;20222;-61
2023/11/22 13:43:39;;;;;;;4.30;3.90;;;;;;;;;;5093009;28;20184;-61
2023/11/22 13:46:06;;;;;;;3.50;3.20;;;;;;;;;;5092892;28;20287;-61
2023/11/22 13:48:35;;;;;;;4.67;3.70;;;;;;;;;;5092813;28;20798;-61
2023/11/22 13:51:02;;;;;;;3.80;3.45;;;;;;;;;;5092770;28;20455;-61
2023/11/22 13:53:34;;;;;;;3.83;3.40;;;;;;;;;;5092563;28;20675;-62
2023/11/22 13:56:02;;;;;;;4.90;4.40;;;;;;;;;;5092791;28;20196;-62
2023/11/22 13:58:32;;;;;;;4.80;3.83;;;;;;;;;;5092539;28;20237;-62
2023/11/22 14:00:59;;;;;;;5.30;4.45;;;;;;;;;;5092470;28;20208;-61
2023/11/22 14:03:25;;;;;;;5.28;4.15;;;;;;;;;;5092468;28;20193;-62
2023/11/22 14:05:54;;;;;;;5.90;4.57;;;;;;;;;;5092458;28;20636;-63
2023/11/22 14:08:21;;;;;;;7.60;5.25;;;;;;;;;;5092112;28;20626;-62
2023/11/22 14:10:47;;;;;;;6.90;5.38;;;;;;;;;;5093971;28;20194;-63
2023/11/22 14:13:14;;;;;;;6.00;4.57;;;;;;;;;;5096771;28;20283;-62
2023/11/22 14:15:41;;;;;;;4.90;4.03;;;;;;;;;;5096259;28;20224;-63
2023/11/22 14:18:08;;;;;;;6.70;4.78;;;;;;;;;;5096334;28;20185;-62
2023/11/22 14:20:35;;;;;;;3.40;3.10;;;;;;;;;;5096339;28;20644;-62
2023/11/22 14:23:04;;;;;;;3.60;3.30;;;;;;;;;;5096535;28;20238;-62
2023/11/22 14:25:31;;;;;;;4.18;3.78;;;;;;;;;;5096379;28;20197;-62
2023/11/22 14:27:59;;;;;;;3.72;3.33;;;;;;;;;;5096201;28;20548;-62
2023/11/22 14:30:29;;;;;;;4.88;4.35;;;;;;;;;;5096077;28;20185;-62
2023/11/22 14:32:58;;;;;;;10.20;4.70;;;;;;;;;;5096215;28;20200;-63
2023/11/22 14:35:25;;;;;;;5.97;5.30;;;;;;;;;;5096159;28;20200;-62
2023/11/22 14:37:53;;;;;;;5.10;4.60;;;;;;;;;;5096226;28;20189;-62
2023/11/22 14:40:23;;;;;;;4.70;4.22;;;;;;;;;;5096152;28;20189;-62
2023/11/22 14:42:51;;;;;;;6.78;5.15;;;;;;;;;;5096010;28;20322;-62
2023/11/22 14:45:19;;;;;;;9.60;5.38;;;;;;;;;;5096416;28;20199;-62